Time;durP1;ratioP1;P1;durP2;ratioP2;P2;SDS_P1;SDS_P2;PMS_P1;PMS_P2;Temp;Humidity;BMP_temperature;BMP_pressure;BME280_temperature;BME280_humidity;BME280_pressure;Samples;Min_cycle;Max_cycle;Signal;HPM_P1;HPM_P2
2022/01/27 00:04:51;;;;;;;;;6.25;5.00;;;;;5.71;46.10;101952.22;146609;600;46010;-72
2022/01/27 00:07:43;;;;;;;;;11.00;8.50;;;;;5.69;46.21;101950.28;146603;602;46016;-71
2022/01/27 00:14:00;;;;;;;;;8.25;8.25;;;;;5.68;45.86;101951.94;146602;608;46016;-73
2022/01/27 00:16:56;;;;;;;;;11.25;9.75;;;;;5.70;46.43;101952.06;146603;570;46008;-74
2022/01/27 00:19:49;;;;;;;;;9.00;8.25;;;;;5.67;46.28;101954.38;146604;581;46029;-74
2022/01/27 00:22:42;;;;;;;;;9.00;7.25;;;;;5.67;46.61;101956.94;146605;582;46020;-74
2022/01/27 00:25:34;;;;;;;;;6.75;6.75;;;;;5.62;46.57;101959.13;146604;591;46016;-74
2022/01/27 00:28:27;;;;;;;;;9.25;7.50;;;;;5.62;46.38;101953.97;146604;623;46020;-73
2022/01/27 00:31:22;;;;;;;;;9.25;7.50;;;;;5.61;45.75;101953.81;146604;582;46010;-73
2022/01/27 00:34:14;;;;;;;;;9.75;6.75;;;;;5.60;46.31;101962.31;146606;572;46009;-73
2022/01/27 00:37:06;;;;;;;;;6.25;6.25;;;;;5.60;46.16;101965.78;146602;565;46014;-74
2022/01/27 00:39:59;;;;;;;;;10.75;10.00;;;;;5.61;46.61;101972.75;146607;606;46008;-74
2022/01/27 00:42:52;;;;;;;;;19.50;16.00;;;;;5.60;46.81;101968.34;146601;592;46016;-72
2022/01/27 00:45:44;;;;;;;;;11.50;10.75;;;;;5.61;46.06;101966.69;146604;579;46008;-74
2022/01/27 00:48:37;;;;;;;;;12.75;10.00;;;;;5.59;46.01;101964.00;146601;595;47011;-73
2022/01/27 00:51:35;;;;;;;;;12.00;10.25;;;;;5.58;46.20;101972.47;146604;571;46020;-73
2022/01/27 00:54:28;;;;;;;;;10.50;7.75;;;;;5.58;46.67;101967.34;146602;630;47010;-73
2022/01/27 01:00:40;;;;;;;;;20.25;15.00;;;;;5.46;47.23;101972.25;146602;624;46016;-72
2022/01/27 01:03:37;;;;;;;;;17.25;12.75;;;;;5.35;48.36;101970.34;146605;576;46021;-71
2022/01/27 01:06:38;;;;;;;;;18.25;16.00;;;;;5.23;48.19;101962.44;146603;641;46016;-71
2022/01/27 01:15:51;;;;;;;;;16.75;14.00;;;;;5.12;47.74;101970.81;146605;578;46008;-71
2022/01/27 01:18:56;;;;;;;;;13.00;10.25;;;;;5.12;47.72;101968.25;146605;646;46010;-71
2022/01/27 01:29:21;;;;;;;;;16.75;10.75;;;;;5.15;47.83;101965.06;146607;627;45020;-72
2022/01/27 01:34:33;;;;;;;;;18.00;18.00;;;;;5.10;48.40;101970.66;146607;664;45023;-73
2022/01/27 01:37:25;;;;;;;;;9.25;8.75;;;;;5.09;47.48;101971.44;146605;563;46012;-73
2022/01/27 01:40:21;;;;;;;;;10.00;7.25;;;;;5.11;48.30;101974.16;146604;620;46020;-73
2022/01/27 01:43:13;;;;;;;;;17.75;13.75;;;;;5.09;48.69;101978.25;146601;613;46016;-72
2022/01/27 01:46:05;;;;;;;;;23.75;19.00;;;;;5.02;48.21;101974.22;146600;587;46020;-73
2022/01/27 01:48:57;;;;;;;;;22.75;19.50;;;;;4.96;47.48;101967.59;146598;626;46017;-73
2022/01/27 01:51:50;;;;;;;;;19.00;14.25;;;;;4.92;48.74;101968.03;146605;695;46020;-73
2022/01/27 01:54:42;;;;;;;;;19.00;17.00;;;;;4.86;48.16;101961.59;146605;615;46013;-73
2022/01/27 01:57:35;;;;;;;;;22.00;17.00;;;;;4.77;48.20;101954.69;146603;571;46020;-73
2022/01/27 02:00:28;;;;;;;;;17.25;16.00;;;;;4.70;48.00;101960.88;146599;618;46031;-73
2022/01/27 02:03:20;;;;;;;;;13.00;10.00;;;;;4.63;46.81;101961.97;146604;665;46020;-73
2022/01/27 02:06:19;;;;;;;;;11.75;9.25;;;;;4.65;47.04;101958.69;146602;618;47010;-73
2022/01/27 02:09:20;;;;;;;;;14.50;11.50;;;;;4.67;46.77;101955.47;146605;595;46021;-73
2022/01/27 02:18:53;;;;;;;;;6.00;5.00;;;;;4.87;44.40;101953.09;146604;574;45912;-72
2022/01/27 02:21:54;;;;;;;;;5.00;4.50;;;;;4.95;44.73;101948.66;146603;579;47008;-73
2022/01/27 02:24:46;;;;;;;;;7.00;6.00;;;;;5.01;44.73;101954.38;146605;608;46914;-73
2022/01/27 02:27:39;;;;;;;;;6.00;6.00;;;;;5.09;45.08;101961.16;146605;624;46027;-73
2022/01/27 02:30:32;;;;;;;;;5.00;4.00;;;;;5.14;44.33;101953.88;146601;564;46012;-73
2022/01/27 02:33:34;;;;;;;;;9.00;9.00;;;;;5.16;43.97;101962.63;146605;648;46008;-71
2022/01/27 02:36:27;;;;;;;;;10.00;8.50;;;;;5.17;44.59;101964.44;146603;569;46012;-71
2022/01/27 02:39:20;;;;;;;;;14.50;10.25;;;;;5.18;44.65;101963.69;146610;587;45021;-71
2022/01/27 02:42:43;;;;;;;;;9.00;7.00;;;;;5.19;44.39;101970.62;146599;618;46017;-71
2022/01/27 02:45:49;;;;;;;;;12.50;10.25;;;;;5.19;44.06;101974.84;146602;586;46008;-77
2022/01/27 02:48:41;;;;;;;;;11.00;7.00;;;;;5.17;44.52;101971.22;146602;591;46010;-74
2022/01/27 02:51:33;;;;;;;;;9.25;7.50;;;;;5.17;44.44;101978.94;146602;575;46020;-73
2022/01/27 02:54:26;;;;;;;;;10.50;10.00;;;;;5.18;44.73;101979.09;146603;594;45914;-74
2022/01/27 02:57:20;;;;;;;;;9.25;6.50;;;;;5.16;44.38;101972.00;146607;618;46020;-77
2022/01/27 03:00:13;;;;;;;;;7.75;5.75;;;;;5.16;44.62;101977.16;146599;635;47010;-76
2022/01/27 03:03:05;;;;;;;;;8.25;6.25;;;;;5.19;44.58;101983.47;146606;648;46021;-75
2022/01/27 03:05:57;;;;;;;;;6.50;6.25;;;;;5.17;45.11;101982.44;146605;571;46016;-71
2022/01/27 03:08:49;;;;;;;;;5.75;4.25;;;;;5.16;45.58;101982.28;146607;565;46020;-74
2022/01/27 03:11:54;;;;;;;;;8.50;8.50;;;;;5.10;45.34;101986.09;146600;620;47010;-70
2022/01/27 03:14:46;;;;;;;;;8.75;7.50;;;;;5.06;46.41;101988.25;146603;623;46020;-74
2022/01/27 03:17:38;;;;;;;;;9.25;7.50;;;;;5.02;46.59;101983.59;146604;575;46017;-73
2022/01/27 03:20:34;;;;;;;;;19.75;15.75;;;;;4.97;46.17;101987.38;146604;582;46020;-73
2022/01/27 03:23:27;;;;;;;;;28.00;22.50;;;;;4.82;46.00;101981.69;146599;586;46010;-73
2022/01/27 03:26:20;;;;;;;;;30.25;26.50;;;;;4.59;46.02;101994.94;146603;617;46008;-72
2022/01/27 03:29:12;;;;;;;;;27.00;22.75;;;;;4.34;46.10;101992.59;146603;575;46012;-73
2022/01/27 03:32:04;;;;;;;;;34.75;28.25;;;;;4.07;46.94;101992.50;146601;627;46020;-73
2022/01/27 03:34:57;;;;;;;;;27.00;25.50;;;;;3.84;46.87;102000.53;146602;840;47010;-71
2022/01/27 03:37:49;;;;;;;;;25.00;24.00;;;;;3.64;48.28;101995.97;146606;578;46020;-71
2022/01/27 03:40:42;;;;;;;;;28.00;26.00;;;;;3.50;47.43;102002.31;146600;570;46016;-80
2022/01/27 03:43:34;;;;;;;;;27.75;22.75;;;;;3.40;47.04;102005.63;146602;586;46020;-81
2022/01/27 03:46:27;;;;;;;;;28.75;25.00;;;;;3.38;47.02;102002.00;146602;581;46914;-72
2022/01/27 03:49:19;;;;;;;;;34.25;30.50;;;;;3.37;47.22;102007.88;146607;623;46020;-72
2022/01/27 03:52:12;;;;;;;;;26.50;25.25;;;;;3.33;48.10;102004.84;146601;631;47010;-72
2022/01/27 03:55:04;;;;;;;;;26.25;24.75;;;;;3.29;48.15;101997.59;146606;570;46008;-70
2022/01/27 03:57:56;;;;;;;;;35.00;28.00;;;;;3.25;47.55;102006.66;146602;642;45913;-71
2022/01/27 04:00:49;;;;;;;;;33.00;27.50;;;;;3.24;47.60;102004.84;146607;622;46008;-71
2022/01/27 04:03:43;;;;;;;;;28.00;25.50;;;;;3.20;47.61;102021.53;146602;576;46016;-72
2022/01/27 04:06:40;;;;;;;;;32.25;26.00;;;;;3.16;47.97;102008.28;146606;589;46020;-72
2022/01/27 04:09:32;;;;;;;;;34.00;29.00;;;;;3.09;48.86;102006.75;146599;599;47010;-71
2022/01/27 04:12:24;;;;;;;;;33.25;28.50;;;;;3.02;48.60;102009.41;146602;606;46020;-71
2022/01/27 04:15:16;;;;;;;;;33.25;30.25;;;;;2.97;48.96;102013.19;146602;599;46017;-71
2022/01/27 04:18:09;;;;;;;;;32.25;27.75;;;;;2.93;48.83;102019.66;146603;592;46008;-72
2022/01/27 04:21:01;;;;;;;;;39.75;31.25;;;;;2.94;48.53;102033.37;146600;592;46016;-72
2022/01/27 04:23:57;;;;;;;;;31.25;28.25;;;;;2.90;48.44;102024.47;146605;590;46020;-72
2022/01/27 04:27:03;;;;;;;;;29.50;25.50;;;;;2.95;47.94;102033.53;146600;615;46913;-72
2022/01/27 04:30:21;;;;;;;;;29.50;24.25;;;;;3.04;47.87;102037.78;146603;707;46021;-72
2022/01/27 04:33:30;;;;;;;;;28.50;22.75;;;;;3.11;47.76;102045.34;146602;604;47010;-71
2022/01/27 04:36:56;;;;;;;;;32.25;24.50;;;;;3.16;46.68;102050.19;146601;645;46020;-71
2022/01/27 04:40:16;;;;;;;;;36.25;25.75;;;;;3.18;47.70;102051.25;146600;596;46034;-70
2022/01/27 04:43:54;;;;;;;;;40.75;34.75;;;;;3.13;48.61;102054.09;146600;570;46020;-71
2022/01/27 04:47:20;;;;;;;;;41.00;33.75;;;;;3.02;48.78;102052.97;146599;564;46912;-70
2022/01/27 04:50:35;;;;;;;;;36.75;28.75;;;;;2.91;48.08;102044.22;146603;628;46008;-72
2022/01/27 05:03:33;;;;;;;;;;;;;;;;;;;;;
2022/01/27 05:11:01;;;;;;;;;23.25;20.00;;;;;2.72;49.35;102054.22;146604;612;46008;-72
2022/01/27 05:14:16;;;;;;;;;28.00;23.25;;;;;2.60;50.92;102062.28;146600;570;46016;-74
2022/01/27 05:17:19;;;;;;;;;31.25;24.50;;;;;2.48;50.00;102055.12;146598;652;47008;-74
2022/01/27 05:20:18;;;;;;;;;67.75;50.00;;;;;2.49;49.74;102056.97;146595;582;46016;-74
2022/01/27 05:23:14;;;;;;;;;58.25;42.75;;;;;2.51;50.39;102058.00;146600;599;46021;-74
2022/01/27 05:26:19;;;;;;;;;18.25;15.75;;;;;2.58;50.00;102056.09;146597;579;46016;-73
2022/01/27 05:29:39;;;;;;;;;28.25;25.50;;;;;2.65;49.81;102054.34;146604;570;46009;-74
2022/01/27 05:32:41;;;;;;;;;42.75;32.75;;;;;2.73;49.95;102063.72;146598;572;46016;-73
2022/01/27 05:35:49;;;;;;;;;24.75;22.75;;;;;2.76;49.49;102071.72;146600;631;47008;-75
2022/01/27 05:38:42;;;;;;;;;35.00;28.75;;;;;2.71;50.10;102070.34;146595;570;47012;-74
2022/01/27 05:41:39;;;;;;;;;33.25;25.25;;;;;2.70;49.73;102070.16;146606;573;46008;-75
2022/01/27 05:44:59;;;;;;;;;26.50;24.00;;;;;2.77;48.14;102090.53;146597;587;46017;-75
2022/01/27 05:47:56;;;;;;;;;37.00;29.50;;;;;2.78;48.96;102083.03;146600;590;46008;-76
2022/01/27 05:51:28;;;;;;;;;30.75;25.50;;;;;2.80;49.43;102087.41;146595;575;46016;-75
2022/01/27 05:54:27;;;;;;;;;22.75;18.25;;;;;2.78;49.24;102095.84;146600;585;46026;-75
2022/01/27 05:57:28;;;;;;;;;22.50;22.00;;;;;2.78;49.35;102094.94;146596;586;46017;-73
2022/01/27 06:01:12;;;;;;;;;;;;;;;;;;;;;
2022/01/27 06:04:33;;;;;;;;;;;;;;;;;;;;;
2022/01/27 06:10:54;;;;;;;;;42.25;33.00;;;;;2.81;49.49;102117.41;146597;637;46016;-75
2022/01/27 06:17:50;;;;;;;;;49.25;40.25;;;;;3.03;49.80;102118.88;146597;712;46016;-72
2022/01/27 06:20:44;;;;;;;;;45.75;38.00;;;;;3.77;48.37;102121.22;146598;608;46020;-74
2022/01/27 06:23:57;;;;;;;;;;;;;;;;;;;;;
2022/01/27 06:27:11;;;;;;;;;41.50;35.25;;;;;6.48;44.89;102111.09;146600;571;46020;-76
2022/01/27 06:30:08;;;;;;;;;52.50;42.25;;;;;7.79;43.16;102103.59;146597;564;46017;-76
2022/01/27 06:33:16;;;;;;;;;51.25;40.75;;;;;9.04;40.62;102106.94;146598;573;47008;-74
2022/01/27 06:36:13;;;;;;;;;45.25;36.25;;;;;10.12;39.16;102105.72;146594;707;46030;-71
2022/01/27 06:39:47;;;;;;;;;48.50;38.25;;;;;11.14;37.92;102114.97;146602;596;46008;-72
2022/01/27 06:42:48;;;;;;;;;57.75;44.50;;;;;11.88;35.94;102112.34;146599;564;46013;-72
2022/01/27 06:45:54;;;;;;;;;55.50;43.50;;;;;12.37;35.49;102100.03;146606;649;46020;-74
2022/01/27 06:48:59;;;;;;;;;61.25;46.25;;;;;12.75;35.21;102107.72;146600;622;47010;-73
2022/01/27 06:52:11;;;;;;;;;;;;;;;;;;;;;
2022/01/27 06:55:18;;;;;;;;;49.75;38.50;;;;;12.06;34.07;101912.50;146604;762;46010;-72
2022/01/27 07:03:01;;;;;;;;;37.75;33.00;;;;;12.82;34.45;102114.22;146602;646;46919;-71
2022/01/27 07:06:06;;;;;;;;;38.75;34.00;;;;;12.97;34.25;102115.19;146603;616;46020;-71
2022/01/27 07:09:47;;;;;;;;;42.00;34.00;;;;;13.13;34.67;102110.12;146599;634;46016;-71
2022/01/27 07:12:47;;;;;;;;;41.50;33.75;;;;;13.14;32.58;102109.31;146607;623;46008;-72
2022/01/27 07:15:50;;;;;;;;;36.50;32.25;;;;;12.97;32.39;102124.72;146601;569;47010;-71
2022/01/27 07:18:55;;;;;;;;;41.00;32.75;;;;;12.66;33.52;102121.03;146604;578;47008;-70
2022/01/27 07:21:55;;;;;;;;;44.75;36.75;;;;;12.40;33.26;102126.25;146604;577;46010;-71
2022/01/27 07:24:59;;;;;;;;;41.25;35.25;;;;;12.13;33.20;102138.28;146605;622;46008;-71
2022/01/27 07:27:56;;;;;;;;;45.50;36.75;;;;;11.77;33.80;102140.12;146603;592;46010;-73
2022/01/27 07:30:53;;;;;;;;;45.50;37.00;;;;;11.54;35.12;102131.66;146605;576;46020;-74
2022/01/27 07:34:05;;;;;;;;;40.25;34.75;;;;;11.47;35.24;102131.13;146602;603;46010;-72
2022/01/27 07:37:27;;;;;;;;;39.75;31.75;;;;;11.33;34.99;102137.94;146602;696;46021;-74
2022/01/27 07:40:36;;;;;;;;;31.75;29.00;;;;;11.14;34.64;102137.44;146601;642;46010;-75
2022/01/27 07:43:36;;;;;;;;;39.75;34.00;;;;;11.00;35.07;102132.16;146603;586;46020;-75
2022/01/27 07:46:39;;;;;;;;;33.75;30.50;;;;;10.89;36.24;102134.78;146598;594;46016;-76
2022/01/27 07:53:54;;;;;;;;;35.25;30.50;;;;;10.75;37.07;102138.97;146603;588;46010;-73
2022/01/27 07:56:57;;;;;;;;;28.75;25.00;;;;;10.64;35.84;102144.25;146600;612;46020;-73
2022/01/27 08:04:39;;;;;;;;;29.25;23.25;;;;;10.46;38.10;102142.00;146600;602;47006;-68
2022/01/27 08:07:59;;;;;;;;;24.00;21.00;;;;;10.47;38.49;102149.91;146598;650;46025;-69
2022/01/27 08:10:57;;;;;;;;;31.25;28.00;;;;;10.53;38.27;102142.56;146603;632;46008;-68
2022/01/27 08:14:16;;;;;;;;;;;;;;;;;;;;;
2022/01/27 08:17:26;;;;;;;;;36.25;29.75;;;;;11.01;36.80;102149.53;146603;757;46008;-70
2022/01/27 08:20:22;;;;;;;;;28.50;23.00;;;;;11.09;37.44;102140.62;146596;627;46017;-68
2022/01/27 08:23:20;;;;;;;;;25.75;21.75;;;;;11.04;35.44;102148.84;146601;569;46020;-70
2022/01/27 08:29:54;;;;;;;;;30.50;25.75;;;;;10.71;36.39;102137.81;146600;590;46020;-73
2022/01/27 08:33:04;;;;;;;;;31.50;25.00;;;;;10.56;35.88;102153.19;146597;614;46016;-70
2022/01/27 08:36:01;;;;;;;;;25.75;24.00;;;;;10.40;35.99;102143.38;146604;715;47008;-73
2022/01/27 08:39:00;;;;;;;;;34.75;27.00;;;;;10.30;35.57;102155.50;146596;623;46915;-71
2022/01/27 08:42:44;;;;;;;;;;;;;;;;;;;;;
2022/01/27 08:45:53;;;;;;;;;32.50;29.75;;;;;10.39;36.87;102149.31;146598;619;46018;-72
2022/01/27 08:48:46;;;;;;;;;34.00;28.25;;;;;10.44;36.84;102153.97;146601;639;46020;-72
2022/01/27 08:51:47;;;;;;;;;43.75;33.50;;;;;10.47;36.38;102154.19;146595;590;46017;-71
2022/01/27 08:55:08;;;;;;;;;27.50;25.00;;;;;10.55;36.44;102155.66;146599;658;46020;-71
2022/01/27 08:58:13;;;;;;;;;33.50;30.25;;;;;10.61;36.01;102151.81;146598;569;46017;-70
2022/01/27 09:01:22;;;;;;;;;39.00;31.25;;;;;10.66;36.28;102154.75;146598;598;46012;-72
2022/01/27 09:04:22;;;;;;;;;19.50;17.75;;;;;10.71;34.88;102158.56;146597;576;46918;-71
2022/01/27 09:07:21;;;;;;;;;28.25;25.75;;;;;10.78;35.45;102152.16;146602;634;46024;-72
2022/01/27 09:10:51;;;;;;;;;16.75;15.50;;;;;10.84;35.60;102144.81;146598;575;46010;-73
2022/01/27 09:13:54;;;;;;;;;30.00;25.75;;;;;10.84;35.93;102137.94;146599;569;46008;-72
2022/01/27 09:16:56;;;;;;;;;23.00;20.00;;;;;10.89;35.30;102146.03;146594;569;47010;-72
2022/01/27 09:19:48;;;;;;;;;27.00;25.00;;;;;10.90;36.41;102141.75;146599;623;46020;-70
2022/01/27 09:22:41;;;;;;;;;36.00;30.00;;;;;10.96;37.09;102153.47;146598;606;46016;-72
2022/01/27 09:25:42;;;;;;;;;34.50;31.00;;;;;11.06;35.65;102148.19;146600;619;46008;-72
2022/01/27 09:28:34;;;;;;;;;32.00;27.75;;;;;11.20;35.79;102156.94;146597;569;46010;-71
2022/01/27 09:31:26;;;;;;;;;24.00;18.25;;;;;11.41;35.02;102160.16;146598;573;46008;-71
2022/01/27 09:34:19;;;;;;;;;17.50;15.25;;;;;11.55;35.11;102151.63;146597;606;46016;-71
2022/01/27 09:37:11;;;;;;;;;19.50;14.50;;;;;11.65;34.09;102142.81;146602;654;46020;-70
2022/01/27 09:40:06;;;;;;;;;21.50;19.25;;;;;11.77;34.75;102143.66;146597;577;46016;-71
2022/01/27 09:42:59;;;;;;;;;20.25;16.50;;;;;11.80;34.01;102137.75;146599;604;46021;-71
2022/01/27 09:45:54;;;;;;;;;16.00;14.50;;;;;11.78;34.88;102131.56;146598;660;46016;-71
2022/01/27 09:48:48;;;;;;;;;28.00;24.00;;;;;11.87;34.61;102136.50;146600;608;46008;-70
2022/01/27 09:51:43;;;;;;;;;28.25;23.75;;;;;11.85;34.97;102130.31;146594;564;47010;-71
2022/01/27 09:54:36;;;;;;;;;29.00;26.00;;;;;11.75;34.61;102127.06;146600;578;46008;-71
2022/01/27 09:57:29;;;;;;;;;29.25;25.50;;;;;11.76;35.54;102128.84;146597;651;46011;-72
2022/01/27 10:00:21;;;;;;;;;22.50;20.25;;;;;11.83;35.08;102121.47;146598;571;46020;-71
2022/01/27 10:03:19;;;;;;;;;25.50;20.50;;;;;11.93;36.23;102123.91;146597;644;46917;-72
2022/01/27 10:06:18;;;;;;;;;24.00;23.50;;;;;12.06;36.00;102120.47;146599;628;46008;-72
2022/01/27 10:09:29;;;;;;;;;22.00;19.75;;;;;12.00;35.67;102111.47;146598;622;46016;-70
2022/01/27 10:12:29;;;;;;;;;29.50;25.50;;;;;11.96;36.16;102106.88;146600;576;46021;-71
2022/01/27 10:15:24;;;;;;;;;29.25;23.75;;;;;12.00;35.79;102097.56;146596;620;46016;-70
2022/01/27 10:18:25;;;;;;;;;21.75;19.25;;;;;12.08;35.14;102098.06;146600;630;46009;-70
2022/01/27 10:21:19;;;;;;;;;17.25;16.50;;;;;12.13;35.50;102092.38;146597;625;46918;-68
2022/01/27 10:24:27;;;;;;;;;21.75;19.25;;;;;12.29;36.17;102089.09;146603;576;45020;-71
2022/01/27 10:27:44;;;;;;;;;24.50;21.75;;;;;12.44;35.22;102090.09;146598;616;46017;-70
2022/01/27 10:30:38;;;;;;;;;24.75;23.00;;;;;12.59;34.69;102094.53;146600;575;46008;-71
2022/01/27 10:33:30;;;;;;;;;20.25;19.50;;;;;12.74;34.52;102091.97;146595;569;46011;-72
2022/01/27 10:36:50;;;;;;;;;18.50;18.50;;;;;12.84;33.39;102087.47;146601;585;46020;-70
2022/01/27 10:39:50;;;;;;;;;11.00;10.00;;;;;12.85;33.89;102084.06;146597;656;46016;-72
2022/01/27 10:42:42;;;;;;;;;20.75;16.50;;;;;12.92;33.44;102073.22;146598;645;46021;-73
2022/01/27 10:45:35;;;;;;;;;16.25;14.75;;;;;13.03;33.17;102073.03;146595;627;47917;-72
2022/01/27 10:48:30;;;;;;;;;26.50;21.00;;;;;13.12;33.16;102065.78;146599;586;47008;-71
2022/01/27 10:51:29;;;;;;;;;18.75;15.50;;;;;13.17;32.86;102067.84;146592;593;49917;-71
2022/01/27 10:54:48;;;;;;;;;17.50;15.50;;;;;13.19;32.94;102060.16;146600;614;46020;-72
2022/01/27 10:57:43;;;;;;;;;18.50;14.00;;;;;13.29;33.13;102059.03;146600;602;46010;-72
2022/01/27 11:00:41;;;;;;;;;29.75;23.00;;;;;13.40;33.39;102052.78;146599;663;46020;-72
2022/01/27 11:03:35;;;;;;;;;26.50;24.00;;;;;12.60;33.36;101888.16;146595;585;46017;-71
2022/01/27 11:06:28;;;;;;;;;23.00;21.00;;;;;12.83;32.56;101902.56;146598;620;46020;-72
2022/01/27 11:09:20;;;;;;;;;14.50;12.75;;;;;13.74;31.97;102052.22;146595;583;46010;-73
2022/01/27 11:12:17;;;;;;;;;12.25;11.50;;;;;13.72;32.63;102040.78;146601;606;46020;-72
2022/01/27 11:15:11;;;;;;;;;17.25;16.50;;;;;13.81;33.13;102030.91;146596;569;46010;-72
2022/01/27 11:18:04;;;;;;;;;17.00;14.75;;;;;13.94;32.46;102017.78;146602;602;46008;-72
2022/01/27 11:21:01;;;;;;;;;16.75;15.00;;;;;14.06;31.58;102010.66;146594;592;47010;-72
2022/01/27 11:24:04;;;;;;;;;11.00;10.00;;;;;14.12;31.22;102012.72;146600;576;46021;-73
2022/01/27 11:27:05;;;;;;;;;15.75;12.75;;;;;14.26;32.06;102008.28;146596;583;47010;-72
2022/01/27 11:30:09;;;;;;;;;16.50;14.25;;;;;13.43;32.29;101848.81;146597;592;46020;-73
2022/01/27 11:33:10;;;;;;;;;13.00;12.00;;;;;14.34;31.45;102004.41;146596;591;47012;-72
2022/01/27 11:36:21;;;;;;;;;13.50;13.00;;;;;14.30;32.00;101992.00;146600;575;46008;-72
2022/01/27 11:39:16;;;;;;;;;20.00;17.75;;;;;14.17;31.45;101982.56;146596;570;47010;-74
2022/01/27 11:42:08;;;;;;;;;24.00;21.00;;;;;14.20;31.71;101982.75;146601;597;46020;-72
2022/01/27 11:45:52;;;;;;;;;19.75;17.75;;;;;13.26;33.42;101795.78;146601;605;46016;-72
2022/01/27 11:48:44;;;;;;;;;12.50;12.25;;;;;14.45;30.77;101973.69;146604;620;47008;-73
2022/01/27 11:51:36;;;;;;;;;14.25;13.25;;;;;14.52;31.78;101970.66;146605;618;46917;-73
2022/01/27 11:54:32;;;;;;;;;17.25;17.25;;;;;14.52;31.37;101975.87;146606;597;46008;-71
2022/01/27 11:57:48;;;;;;;;;17.75;15.00;;;;;13.61;31.90;101816.00;146605;587;45917;-72
2022/01/27 12:00:40;;;;;;;;;17.00;15.25;;;;;14.45;30.90;101968.47;146602;657;46006;-72
2022/01/27 12:03:33;;;;;;;;;14.50;12.50;;;;;14.38;30.93;101969.84;146602;601;46016;-71
2022/01/27 12:06:26;;;;;;;;;13.50;13.50;;;;;14.29;30.87;101970.22;146606;573;45020;-72
2022/01/27 12:09:49;;;;;;;;;15.50;13.75;;;;;13.09;32.22;101766.13;146601;613;46016;-71
2022/01/27 12:12:41;;;;;;;;;14.75;11.50;;;;;14.17;30.67;101960.81;146602;593;47008;-70
2022/01/27 12:15:33;;;;;;;;;10.25;10.00;;;;;14.04;31.25;101959.22;146606;607;46010;-71
2022/01/27 12:18:39;;;;;;;;;11.25;11.25;;;;;13.92;32.12;101962.00;146603;603;46021;-72
2022/01/27 12:21:48;;;;;;;;;14.00;13.50;;;;;13.92;33.02;101951.59;146599;629;46917;-71
2022/01/27 12:24:53;;;;;;;;;16.50;13.75;;;;;14.00;32.17;101952.03;146606;605;46008;-71
2022/01/27 12:27:52;;;;;;;;;16.25;12.50;;;;;13.98;31.56;101944.12;146597;575;47012;-71
2022/01/27 12:30:58;;;;;;;;;11.75;11.25;;;;;13.99;31.98;101934.59;146599;565;47008;-71
2022/01/27 12:33:50;;;;;;;;;13.50;12.50;;;;;14.04;31.58;101925.31;146604;563;46016;-72
2022/01/27 12:36:42;;;;;;;;;13.00;11.25;;;;;14.18;31.40;101928.72;146605;614;46020;-71
2022/01/27 12:39:59;;;;;;;;;20.50;18.25;;;;;13.24;32.28;101737.44;146601;619;46016;-71
2022/01/27 12:43:01;;;;;;;;;19.00;17.75;;;;;14.31;32.12;101913.81;146603;596;46022;-70
2022/01/27 12:45:53;;;;;;;;;14.75;13.75;;;;;14.29;30.46;101915.44;146598;595;47010;-71
2022/01/27 12:48:50;;;;;;;;;16.50;13.25;;;;;14.25;31.41;101913.47;146604;595;47008;-71
2022/01/27 12:51:56;;;;;;;;;15.25;15.25;;;;;14.26;31.65;101916.97;146600;563;47010;-71
2022/01/27 12:54:49;;;;;;;;;22.00;18.75;;;;;14.34;31.86;101913.09;146607;575;46009;-71
2022/01/27 12:57:42;;;;;;;;;15.50;14.75;;;;;14.57;31.75;101906.53;146603;600;46016;-71
2022/01/27 13:00:42;;;;;;;;;17.25;15.00;;;;;14.82;31.72;101905.22;146601;576;46021;-71
2022/01/27 13:03:34;;;;;;;;;14.75;12.50;;;;;14.88;29.52;101905.53;146600;584;47010;-71
2022/01/27 13:06:33;;;;;;;;;17.25;16.25;;;;;14.89;31.56;101899.50;146603;613;46020;-71
2022/01/27 13:09:27;;;;;;;;;14.25;12.75;;;;;15.02;30.98;101895.00;146602;578;46918;-71
2022/01/27 13:12:26;;;;;;;;;18.00;18.00;;;;;15.19;30.57;101894.97;146605;565;46008;-71
2022/01/27 13:15:25;;;;;;;;;13.75;12.50;;;;;15.15;29.59;101891.31;146603;565;46017;-70
2022/01/27 13:18:24;;;;;;;;;14.25;14.00;;;;;14.97;30.18;101890.34;146604;617;46008;-70
2022/01/27 13:21:33;;;;;;;;;12.75;10.75;;;;;14.96;31.00;101891.19;146599;591;46016;-71
2022/01/27 13:24:27;;;;;;;;;11.50;11.50;;;;;15.07;30.21;101895.22;146605;572;47008;-71
2022/01/27 13:27:19;;;;;;;;;10.50;10.00;;;;;15.28;29.80;101891.94;146600;702;47010;-72
2022/01/27 13:30:12;;;;;;;;;13.25;10.75;;;;;15.43;29.85;101896.22;146607;593;46008;-71
2022/01/27 13:33:06;;;;;;;;;19.50;16.00;;;;;15.58;30.48;101893.47;146599;565;46016;-71
2022/01/27 13:36:00;;;;;;;;;18.75;16.00;;;;;15.77;30.53;101883.97;146605;635;46020;-71
2022/01/27 13:39:23;;;;;;;;;16.50;13.00;;;;;16.04;30.51;101884.37;146600;646;46028;-72
2022/01/27 13:42:16;;;;;;;;;16.00;15.25;;;;;16.16;29.75;101893.69;146605;595;46012;-71
2022/01/27 13:45:10;;;;;;;;;15.50;13.75;;;;;16.23;29.51;101892.28;146598;599;47917;-71
2022/01/27 13:48:21;;;;;;;;;14.50;13.25;;;;;16.35;31.45;101889.31;146608;598;45021;-72
2022/01/27 13:51:22;;;;;;;;;11.75;11.25;;;;;16.42;29.92;101890.47;146599;571;46016;-71
2022/01/27 13:54:15;;;;;;;;;23.75;22.50;;;;;16.40;29.11;101888.69;146605;580;46021;-72
2022/01/27 13:57:28;;;;;;;;;21.50;17.50;;;;;15.48;31.03;101710.84;146603;573;46010;-71
2022/01/27 14:00:22;;;;;;;;;16.00;13.50;;;;;16.59;28.83;101894.78;146603;564;47008;-71
2022/01/27 14:03:19;;;;;;;;;17.25;17.25;;;;;16.54;29.58;101901.53;146601;573;46016;-72
2022/01/27 14:06:11;;;;;;;;;15.00;13.00;;;;;16.46;28.78;101895.94;146604;594;47008;-71
2022/01/27 14:09:17;;;;;;;;;16.25;12.75;;;;;16.44;29.08;101892.34;146603;576;46016;-71
2022/01/27 14:12:10;;;;;;;;;18.75;17.00;;;;;16.40;28.23;101895.66;146603;613;46020;-71
2022/01/27 14:15:02;;;;;;;;;20.50;17.25;;;;;16.28;29.21;101888.13;146602;652;46012;-71
2022/01/27 14:18:07;;;;;;;;;16.50;13.50;;;;;16.20;29.20;101888.59;146605;614;46021;-71
2022/01/27 14:21:08;;;;;;;;;15.00;12.75;;;;;16.07;29.46;101880.16;146599;569;47012;-71
2022/01/27 14:24:10;;;;;;;;;17.00;15.50;;;;;15.88;28.83;101881.00;146606;594;46009;-71
2022/01/27 14:27:04;;;;;;;;;20.75;16.00;;;;;15.59;28.37;101881.28;146603;571;46010;-70
2022/01/27 14:29:56;;;;;;;;;19.50;17.50;;;;;15.15;29.38;101885.19;146602;591;46020;-71
2022/01/27 14:32:49;;;;;;;;;19.75;18.50;;;;;14.72;30.33;101881.25;146601;569;46016;-71
2022/01/27 14:35:42;;;;;;;;;18.00;13.75;;;;;14.37;31.40;101888.88;146607;615;46008;-71
2022/01/27 14:38:34;;;;;;;;;16.75;14.75;;;;;14.02;30.99;101886.12;146600;570;47010;-71
2022/01/27 14:41:27;;;;;;;;;16.00;14.25;;;;;13.65;31.09;101890.97;146602;613;46008;-71
2022/01/27 14:44:19;;;;;;;;;19.00;19.00;;;;;13.22;32.31;101883.22;146602;617;46010;-71
2022/01/27 14:47:11;;;;;;;;;21.00;20.00;;;;;12.95;32.69;101891.19;146602;592;46021;-71
2022/01/27 14:50:04;;;;;;;;;18.50;18.50;;;;;12.70;32.76;101878.38;146601;596;46016;-71
2022/01/27 14:52:57;;;;;;;;;19.00;16.25;;;;;12.44;33.19;101884.59;146606;608;46008;-70
2022/01/27 14:55:49;;;;;;;;;24.75;22.00;;;;;12.17;33.57;101883.75;146599;696;47010;-71
2022/01/27 14:58:41;;;;;;;;;20.00;18.50;;;;;11.93;33.73;101875.31;146600;579;46020;-70
2022/01/27 15:01:34;;;;;;;;;21.50;20.00;;;;;11.77;34.72;101886.41;146599;593;46029;-70
2022/01/27 15:04:26;;;;;;;;;25.50;23.00;;;;;11.66;34.80;101884.78;146607;649;47008;-70
2022/01/27 15:07:18;;;;;;;;;18.75;16.50;;;;;11.53;34.26;101883.09;146602;642;46031;-70